createdAt,value
2022-10-11T00:00:53.500Z,0.00
2022-10-11T00:01:53.659Z,0.00
2022-10-11T00:02:53.960Z,0.00
2022-10-11T00:03:54.279Z,0.00
2022-10-11T00:04:54.450Z,0.00
2022-10-11T00:05:54.759Z,0.00
2022-10-11T00:06:54.977Z,0.00
2022-10-11T00:07:55.345Z,0.00
2022-10-11T00:08:55.659Z,0.00
2022-10-11T00:10:02.847Z,0.00
2022-10-11T00:10:56.230Z,0.00
2022-10-11T00:11:56.476Z,0.00
2022-10-11T00:12:56.787Z,0.00
2022-10-11T00:13:57.032Z,0.00
2022-10-11T00:14:57.336Z,0.00
2022-10-11T00:15:57.700Z,0.00
2022-10-11T00:16:58.069Z,0.00
2022-10-11T00:18:02.143Z,0.00
2022-10-11T00:18:59.623Z,0.00
2022-10-11T00:19:58.937Z,0.00
2022-10-11T00:20:59.222Z,0.00
2022-10-11T00:21:59.578Z,0.00
2022-10-11T00:22:59.867Z,0.00
2022-10-11T00:24:00.091Z,0.00
2022-10-11T00:25:00.390Z,0.00
2022-10-11T00:26:00.764Z,0.00
2022-10-11T00:27:01.030Z,0.00
2022-10-11T00:28:01.285Z,0.00
2022-10-11T00:29:01.589Z,0.00
2022-10-11T00:30:01.942Z,0.00
2022-10-11T00:31:02.465Z,0.00
2022-10-11T00:32:02.388Z,0.00
2022-10-11T00:33:02.708Z,0.00
2022-10-11T00:34:02.951Z,0.00
2022-10-11T00:35:03.271Z,0.00
2022-10-11T00:36:03.924Z,0.00
2022-10-11T00:37:03.891Z,0.00
2022-10-11T00:38:04.160Z,0.00
2022-10-11T00:39:04.413Z,0.00
2022-10-11T00:40:04.729Z,0.00
2022-10-11T00:41:05.018Z,0.00
2022-10-11T00:42:05.327Z,0.00
2022-10-11T00:43:05.582Z,0.00
2022-10-11T00:44:06.265Z,0.00
2022-10-11T00:45:06.162Z,0.00
2022-10-11T00:46:06.911Z,0.00
2022-10-11T00:47:06.665Z,0.00
2022-10-11T00:48:06.973Z,0.00
2022-10-11T00:49:07.186Z,0.00
2022-10-11T00:50:07.417Z,0.00
2022-10-11T00:51:08.251Z,0.00
2022-10-11T00:52:08.026Z,0.00
2022-10-11T00:53:08.409Z,0.00
2022-10-11T00:54:08.558Z,0.00
2022-10-11T00:55:08.872Z,0.00
2022-10-11T00:56:09.615Z,0.00
2022-10-11T00:57:09.666Z,0.00
2022-10-11T00:58:09.677Z,0.00
2022-10-11T00:59:10.091Z,0.00
2022-10-11T01:00:10.738Z,0.00
2022-10-11T01:01:10.700Z,0.00
2022-10-11T01:02:10.870Z,0.00
2022-10-11T01:03:11.181Z,0.00
2022-10-11T01:04:11.377Z,0.00
2022-10-11T01:05:28.710Z,0.00
2022-10-11T01:06:12.938Z,0.00
2022-10-11T01:07:12.224Z,0.00
2022-10-11T01:08:12.436Z,0.00
2022-10-11T01:09:12.803Z,0.00
2022-10-11T01:10:13.151Z,0.00
2022-10-11T01:11:13.491Z,0.00
2022-10-11T01:12:13.793Z,0.00
2022-10-11T01:13:14.103Z,0.00
2022-10-11T01:14:14.374Z,0.00
2022-10-11T01:15:14.786Z,0.00
2022-10-11T01:16:14.948Z,0.00
2022-10-11T01:17:15.205Z,0.00
2022-10-11T01:18:15.454Z,0.00
2022-10-11T01:19:15.800Z,0.00
2022-10-11T01:20:16.004Z,0.00
2022-10-11T01:21:16.306Z,0.00
2022-10-11T01:22:16.498Z,0.00
2022-10-11T01:23:16.786Z,0.00
2022-10-11T01:24:17.065Z,0.00
2022-10-11T01:25:17.397Z,0.00
2022-10-11T01:26:17.665Z,0.00
2022-10-11T01:27:17.996Z,0.00
2022-10-11T01:28:18.281Z,0.00
2022-10-11T01:29:18.480Z,0.00
2022-10-11T01:30:18.741Z,0.00
2022-10-11T01:31:19.091Z,0.00
2022-10-11T01:32:19.386Z,0.00
2022-10-11T01:33:19.605Z,0.00
2022-10-11T01:34:19.885Z,0.00
2022-10-11T01:35:20.205Z,0.00
2022-10-11T01:36:20.595Z,0.00
2022-10-11T01:37:20.763Z,0.00
2022-10-11T01:38:21.081Z,0.00
2022-10-11T01:39:21.418Z,0.00
2022-10-11T01:40:21.746Z,0.00
2022-10-11T01:41:21.997Z,0.00
2022-10-11T01:42:22.199Z,0.00
2022-10-11T01:43:22.425Z,0.00
2022-10-11T01:44:22.758Z,0.00
2022-10-11T01:45:23.018Z,0.00
2022-10-11T01:46:23.238Z,0.00
2022-10-11T01:47:23.535Z,0.00
2022-10-11T01:48:23.764Z,0.00
2022-10-11T01:49:24.014Z,0.00
2022-10-11T01:50:24.242Z,0.00
2022-10-11T01:51:24.580Z,0.00
2022-10-11T01:52:24.835Z,0.00
2022-10-11T01:53:25.189Z,0.00
2022-10-11T01:54:25.408Z,0.00
2022-10-11T01:55:25.708Z,0.00
2022-10-11T01:56:26.003Z,0.00
2022-10-11T01:57:26.316Z,0.00
2022-10-11T01:58:26.597Z,0.00
2022-10-11T01:59:26.958Z,0.00
2022-10-11T02:00:27.227Z,0.00
2022-10-11T02:01:27.589Z,0.00
2022-10-11T02:02:27.824Z,0.00
2022-10-11T02:03:28.071Z,0.00
2022-10-11T02:04:28.384Z,0.00
2022-10-11T02:05:28.665Z,0.00
2022-10-11T02:06:28.897Z,0.00
2022-10-11T02:07:29.109Z,0.00
2022-10-11T02:08:29.339Z,0.00
2022-10-11T02:09:29.635Z,0.00
2022-10-11T02:10:29.878Z,0.00
2022-10-11T02:11:30.206Z,0.00
2022-10-11T02:12:30.443Z,0.00
2022-10-11T02:13:30.751Z,0.00
2022-10-11T02:14:30.971Z,0.00
2022-10-11T02:15:31.204Z,0.00
2022-10-11T02:16:31.598Z,0.00
2022-10-11T02:17:31.944Z,0.00
2022-10-11T02:18:32.084Z,0.00
2022-10-11T02:19:32.413Z,0.00
2022-10-11T02:20:32.699Z,0.00
2022-10-11T02:21:32.958Z,0.00
2022-10-11T02:22:33.207Z,0.00
2022-10-11T02:23:33.475Z,0.00
2022-10-11T02:24:33.787Z,0.00
2022-10-11T02:25:34.020Z,0.00
2022-10-11T02:26:34.298Z,0.00
2022-10-11T02:27:34.636Z,0.00
2022-10-11T02:28:34.888Z,0.00
2022-10-11T02:29:35.207Z,0.00
2022-10-11T02:30:35.495Z,0.00
2022-10-11T02:31:35.705Z,0.00
2022-10-11T02:32:35.987Z,0.00
2022-10-11T02:33:36.205Z,0.00
2022-10-11T02:34:36.521Z,0.00
2022-10-11T02:35:36.845Z,0.00
2022-10-11T02:36:37.186Z,0.00
2022-10-11T02:37:37.469Z,0.00
2022-10-11T02:38:37.834Z,0.00
2022-10-11T02:39:38.154Z,0.00
2022-10-11T02:40:38.444Z,0.00
2022-10-11T02:41:38.702Z,0.00
2022-10-11T02:42:39.020Z,0.00
2022-10-11T02:43:39.304Z,0.00
2022-10-11T02:44:39.720Z,0.00
2022-10-11T02:45:39.897Z,0.00
2022-10-11T02:46:40.240Z,0.00
2022-10-11T02:47:40.566Z,0.00
2022-10-11T02:48:40.901Z,0.00
2022-10-11T02:49:41.246Z,0.00
2022-10-11T02:50:41.533Z,0.00
2022-10-11T02:51:41.744Z,0.00
2022-10-11T02:52:41.996Z,0.00
2022-10-11T02:53:42.603Z,0.00
2022-10-11T02:54:42.680Z,0.00
2022-10-11T02:55:42.947Z,0.00
2022-10-11T02:56:43.308Z,0.00
2022-10-11T02:57:43.577Z,0.00
2022-10-11T02:58:43.967Z,0.00
2022-10-11T02:59:44.229Z,0.00
2022-10-11T03:00:44.469Z,0.00
2022-10-11T03:01:45.205Z,0.00
2022-10-11T03:02:45.048Z,0.00
2022-10-11T03:03:45.359Z,0.00
2022-10-11T03:04:45.659Z,0.00
2022-10-11T03:05:46.019Z,0.00
2022-10-11T03:06:46.254Z,0.00
2022-10-11T03:07:46.469Z,0.00
2022-10-11T03:08:46.823Z,0.00
2022-10-11T03:09:47.078Z,0.00
2022-10-11T03:10:47.332Z,0.00
2022-10-11T03:11:47.583Z,0.00
2022-10-11T03:12:47.937Z,0.00
2022-10-11T03:13:48.171Z,0.00
2022-10-11T03:14:48.470Z,0.00
2022-10-11T03:15:49.442Z,0.00
2022-10-11T03:16:51.595Z,0.00
2022-10-11T03:17:49.382Z,0.00
2022-10-11T03:18:49.793Z,0.00
2022-10-11T03:19:50.422Z,0.00
2022-10-11T03:20:50.406Z,0.00
2022-10-11T03:21:50.725Z,0.00
2022-10-11T03:22:50.991Z,0.00
2022-10-11T03:23:51.142Z,0.00
2022-10-11T03:24:51.439Z,0.00
2022-10-11T03:25:51.849Z,0.00
2022-10-11T03:26:52.046Z,0.00
2022-10-11T03:27:52.349Z,0.00
2022-10-11T03:28:52.644Z,0.00
2022-10-11T03:29:52.805Z,0.00
2022-10-11T03:30:53.541Z,0.00
2022-10-11T03:31:53.425Z,0.00
2022-10-11T03:32:53.655Z,0.00
2022-10-11T03:33:54.001Z,0.00
2022-10-11T03:34:54.285Z,0.00
2022-10-11T03:35:54.620Z,0.00
2022-10-11T03:36:54.933Z,0.00
2022-10-11T03:37:55.126Z,0.00
2022-10-11T03:38:55.467Z,0.00
2022-10-11T03:39:55.662Z,0.00
2022-10-11T03:40:56.001Z,0.00
2022-10-11T03:41:56.305Z,0.00
2022-10-11T03:42:56.655Z,0.00
2022-10-11T03:43:56.893Z,0.00
2022-10-11T03:44:57.154Z,0.00
2022-10-11T03:45:57.471Z,0.00
2022-10-11T03:46:57.700Z,0.00
2022-10-11T03:47:58.017Z,0.00
2022-10-11T03:48:58.290Z,0.00
2022-10-11T03:49:58.614Z,0.00
2022-10-11T03:50:58.860Z,0.00
2022-10-11T03:51:59.144Z,0.00
2022-10-11T03:52:59.366Z,0.00
2022-10-11T03:53:59.596Z,0.00
2022-10-11T03:54:59.974Z,0.00
2022-10-11T03:56:03.401Z,0.00
2022-10-11T03:57:01.542Z,0.00
2022-10-11T03:58:00.907Z,0.00
2022-10-11T03:59:01.609Z,0.00
2022-10-11T04:00:01.458Z,0.00
2022-10-11T04:01:01.794Z,0.00
2022-10-11T04:02:02.140Z,0.00
2022-10-11T04:03:02.261Z,0.00
2022-10-11T04:04:02.548Z,0.00
2022-10-11T04:05:02.915Z,0.00
2022-10-11T04:06:03.728Z,0.00
2022-10-11T04:07:03.495Z,0.00
2022-10-11T04:08:06.346Z,0.00
2022-10-11T04:09:05.170Z,0.00
2022-10-11T04:10:04.475Z,0.00
2022-10-11T04:11:04.772Z,0.00
2022-10-11T04:12:05.009Z,0.00
2022-10-11T04:13:05.297Z,0.00
2022-10-11T04:14:05.570Z,0.00
2022-10-11T04:15:05.846Z,0.00
2022-10-11T04:16:06.602Z,0.00
2022-10-11T04:17:06.389Z,0.00
2022-10-11T04:18:06.640Z,0.00
2022-10-11T04:19:06.892Z,0.00
2022-10-11T04:20:07.217Z,0.00
2022-10-11T04:21:07.457Z,0.00
2022-10-11T04:22:07.679Z,0.00
2022-10-11T04:23:08.031Z,0.00
2022-10-11T04:24:08.343Z,0.00
2022-10-11T04:25:08.631Z,0.00
2022-10-11T04:26:09.175Z,0.00
2022-10-11T04:27:09.291Z,0.00
2022-10-11T04:28:09.689Z,0.00
2022-10-11T04:29:09.893Z,0.00
2022-10-11T04:30:10.326Z,0.00
2022-10-11T04:31:10.554Z,0.00
2022-10-11T04:32:10.856Z,0.00
2022-10-11T04:33:11.083Z,0.00
2022-10-11T04:34:11.421Z,0.00
2022-10-11T04:35:11.660Z,0.00
2022-10-11T04:36:12.076Z,0.00
2022-10-11T04:37:12.307Z,0.00
2022-10-11T04:38:12.563Z,0.00
2022-10-11T04:39:12.825Z,0.00
2022-10-11T04:40:13.134Z,0.00
2022-10-11T04:41:13.448Z,0.00
2022-10-11T04:42:13.850Z,0.00
2022-10-11T04:43:14.112Z,0.00
2022-10-11T04:44:14.406Z,0.00
2022-10-11T04:45:14.600Z,0.00
2022-10-11T04:46:15.420Z,0.00
2022-10-11T04:47:15.127Z,0.00
2022-10-11T04:48:15.375Z,0.00
2022-10-11T04:49:15.676Z,0.00
2022-10-11T04:50:15.992Z,0.00
2022-10-11T04:51:16.354Z,0.00
2022-10-11T04:52:16.575Z,0.00
2022-10-11T04:53:16.939Z,0.00
2022-10-11T04:54:17.306Z,0.00
2022-10-11T04:55:17.588Z,0.00
2022-10-11T04:56:17.770Z,0.00
2022-10-11T04:57:18.089Z,0.00
2022-10-11T04:58:18.478Z,0.00
2022-10-11T04:59:18.718Z,0.00
2022-10-11T05:00:19.024Z,0.00
2022-10-11T05:01:19.294Z,0.00
2022-10-11T05:02:19.796Z,0.00
2022-10-11T05:03:20.159Z,0.00
2022-10-11T05:04:20.265Z,0.00
2022-10-11T05:05:20.601Z,0.00
2022-10-11T05:06:20.909Z,0.00
2022-10-11T05:07:21.359Z,0.00
2022-10-11T05:08:21.429Z,0.00
2022-10-11T05:09:21.702Z,0.00
2022-10-11T05:10:21.988Z,0.00
2022-10-11T05:11:22.337Z,0.00
2022-10-11T05:12:22.664Z,0.00
2022-10-11T05:13:22.907Z,0.00
2022-10-11T05:14:23.354Z,0.00
2022-10-11T05:15:23.479Z,0.00
2022-10-11T05:16:23.819Z,0.00
2022-10-11T05:17:24.190Z,0.00
2022-10-11T05:18:25.362Z,0.00
2022-10-11T05:19:24.829Z,0.00
2022-10-11T05:20:25.083Z,0.00
2022-10-11T05:21:26.295Z,0.00
2022-10-11T05:22:25.748Z,0.00
2022-10-11T05:23:26.020Z,0.00
2022-10-11T05:24:26.214Z,0.00
2022-10-11T05:25:26.466Z,0.00
2022-10-11T05:26:26.896Z,0.00
2022-10-11T05:27:27.097Z,0.00
2022-10-11T05:28:27.344Z,0.00
2022-10-11T05:29:27.592Z,0.00
2022-10-11T05:30:27.817Z,0.00
2022-10-11T05:31:28.027Z,0.00
2022-10-11T05:32:32.239Z,0.00
2022-10-11T05:33:28.679Z,0.00
2022-10-11T05:34:28.852Z,0.00
2022-10-11T05:35:29.544Z,0.00
2022-10-11T05:36:29.491Z,0.00
2022-10-11T05:37:29.741Z,0.00
2022-10-11T05:38:33.857Z,0.00
2022-10-11T05:39:30.290Z,0.00
2022-10-11T05:40:30.539Z,0.00
2022-10-11T05:41:30.850Z,0.00
2022-10-11T05:42:31.139Z,0.00
2022-10-11T05:43:31.380Z,0.00
2022-10-11T05:44:31.609Z,0.00
2022-10-11T05:45:33.556Z,0.00
2022-10-11T05:46:32.100Z,0.00
2022-10-11T05:47:32.402Z,0.00
2022-10-11T05:48:32.663Z,0.00
2022-10-11T05:49:32.929Z,0.00
2022-10-11T05:50:33.157Z,0.00
2022-10-11T05:51:33.571Z,0.00
2022-10-11T05:52:33.776Z,0.00
2022-10-11T05:53:34.040Z,0.00
2022-10-11T05:54:34.406Z,0.00
2022-10-11T05:55:34.691Z,0.00
2022-10-11T05:56:34.919Z,0.00
2022-10-11T05:57:35.170Z,0.00
2022-10-11T05:58:35.437Z,0.00
2022-10-11T05:59:35.689Z,0.00
2022-10-11T06:00:35.980Z,0.00
2022-10-11T06:01:36.270Z,0.00
2022-10-11T06:02:36.581Z,5.62
2022-10-11T06:03:36.828Z,5.62
2022-10-11T06:04:37.098Z,5.62
2022-10-11T06:05:37.865Z,5.62
2022-10-11T06:06:37.654Z,5.62
2022-10-11T06:07:38.827Z,5.62
2022-10-11T06:08:38.211Z,5.62
2022-10-11T06:09:38.479Z,5.62
2022-10-11T06:10:38.751Z,5.62
2022-10-11T06:11:39.007Z,5.62
2022-10-11T06:12:39.272Z,5.62
2022-10-11T06:13:39.532Z,5.62
2022-10-11T06:14:39.827Z,5.62
2022-10-11T06:15:40.070Z,5.62
2022-10-11T06:16:40.319Z,5.62
2022-10-11T06:17:40.556Z,5.62
2022-10-11T06:18:40.860Z,5.62
2022-10-11T06:19:41.112Z,5.62
2022-10-11T06:20:41.340Z,5.62
2022-10-11T06:21:41.556Z,5.62
2022-10-11T06:22:41.833Z,5.62
2022-10-11T06:23:42.045Z,5.62
2022-10-11T06:24:42.333Z,5.62
2022-10-11T06:25:42.593Z,5.62
2022-10-11T06:26:42.915Z,11.25
2022-10-11T06:27:43.238Z,11.25
2022-10-11T06:28:43.449Z,11.25
2022-10-11T06:29:43.687Z,11.25
2022-10-11T06:30:44.010Z,11.25
2022-10-11T06:31:44.270Z,11.25
2022-10-11T06:32:44.469Z,11.25
2022-10-11T06:33:44.808Z,11.25
2022-10-11T06:34:45.013Z,11.25
2022-10-11T06:35:45.269Z,11.25
2022-10-11T06:36:45.576Z,11.25
2022-10-11T06:37:45.799Z,11.25
2022-10-11T06:38:46.058Z,11.25
2022-10-11T06:39:46.501Z,16.88
2022-10-11T06:40:46.557Z,16.88
2022-10-11T06:41:46.863Z,16.88
2022-10-11T06:42:47.110Z,16.88
2022-10-11T06:43:47.349Z,16.88
2022-10-11T06:44:47.629Z,16.88
2022-10-11T06:45:47.853Z,16.88
2022-10-11T06:46:48.145Z,22.50
2022-10-11T06:47:48.451Z,22.50
2022-10-11T06:48:48.689Z,22.50
2022-10-11T06:49:48.901Z,22.50
2022-10-11T06:50:59.491Z,22.50
2022-10-11T06:51:50.460Z,22.50
2022-10-11T06:52:49.713Z,22.50
2022-10-11T06:53:49.955Z,22.50
2022-10-11T06:54:50.304Z,22.50
2022-10-11T06:55:50.538Z,22.50
2022-10-11T06:56:50.823Z,22.50
2022-10-11T06:57:51.031Z,22.50
2022-10-11T06:58:51.312Z,22.50
2022-10-11T06:59:51.585Z,22.50
2022-10-11T07:00:51.906Z,22.50
2022-10-11T07:01:52.268Z,22.50
2022-10-11T07:02:52.502Z,22.50
2022-10-11T07:03:52.780Z,22.50
2022-10-11T07:04:53.001Z,28.12
2022-10-11T07:05:53.260Z,28.12
2022-10-11T07:06:53.567Z,28.12
2022-10-11T07:07:53.786Z,28.12
2022-10-11T07:08:54.062Z,28.12
2022-10-11T07:09:54.316Z,33.75
2022-10-11T07:10:54.580Z,33.75
2022-10-11T07:11:54.871Z,33.75
2022-10-11T07:12:55.133Z,33.75
2022-10-11T07:13:55.406Z,33.75
2022-10-11T07:14:55.684Z,33.75
2022-10-11T07:15:55.958Z,33.75
2022-10-11T07:16:56.196Z,33.75
2022-10-11T07:17:56.473Z,33.75
2022-10-11T07:19:00.570Z,39.38
2022-10-11T07:19:57.935Z,39.38
2022-10-11T07:20:57.374Z,39.38
2022-10-11T07:21:57.722Z,39.38
2022-10-11T07:22:57.940Z,39.38
2022-10-11T07:23:58.429Z,39.38
2022-10-11T07:24:58.518Z,45.00
2022-10-11T07:25:58.864Z,45.00
2022-10-11T07:26:59.127Z,45.00
2022-10-11T07:27:59.385Z,50.62
2022-10-11T07:28:59.682Z,50.62
2022-10-11T07:29:59.911Z,50.62
2022-10-11T07:31:00.197Z,45.00
2022-10-11T07:32:00.465Z,45.00
2022-10-11T07:33:00.832Z,45.00
2022-10-11T07:34:00.946Z,50.62
2022-10-11T07:35:01.180Z,45.00
2022-10-11T07:36:01.510Z,45.00
2022-10-11T07:37:01.794Z,45.00
2022-10-11T07:38:02.029Z,45.00
2022-10-11T07:39:02.307Z,45.00
2022-10-11T07:40:02.554Z,50.62
2022-10-11T07:41:02.814Z,56.25
2022-10-11T07:42:03.115Z,56.25
2022-10-11T07:43:03.385Z,56.25
2022-10-11T07:44:03.657Z,56.25
2022-10-11T07:45:03.967Z,45.00
2022-10-11T07:46:04.786Z,39.38
2022-10-11T07:47:07.784Z,39.38
2022-10-11T07:48:05.771Z,39.38
2022-10-11T07:49:05.096Z,39.38
2022-10-11T07:50:05.304Z,39.38
2022-10-11T07:51:05.583Z,39.38
2022-10-11T07:52:05.830Z,39.38
2022-10-11T07:53:06.079Z,45.00
2022-10-11T07:54:07.532Z,45.00
2022-10-11T07:55:06.674Z,45.00
2022-10-11T07:56:07.586Z,45.00
2022-10-11T07:57:07.286Z,45.00
2022-10-11T07:58:07.568Z,45.00
2022-10-11T07:59:07.850Z,45.00
2022-10-11T08:00:08.083Z,45.00
2022-10-11T08:01:08.432Z,50.62
2022-10-11T08:02:08.739Z,50.62
2022-10-11T08:03:08.992Z,45.00
2022-10-11T08:04:09.289Z,45.00
2022-10-11T08:05:09.512Z,45.00
2022-10-11T08:06:10.264Z,45.00
2022-10-11T08:07:10.116Z,45.00
2022-10-11T08:08:10.343Z,45.00
2022-10-11T08:09:10.611Z,45.00
2022-10-11T08:10:10.885Z,45.00
2022-10-11T08:11:11.152Z,45.00
2022-10-11T08:12:11.438Z,45.00
2022-10-11T08:13:11.715Z,45.00
2022-10-11T08:14:12.019Z,39.38
2022-10-11T08:15:12.221Z,45.00
2022-10-11T08:16:12.455Z,45.00
2022-10-11T08:17:12.749Z,45.00
2022-10-11T08:18:13.015Z,45.00
2022-10-11T08:19:13.236Z,45.00
2022-10-11T08:20:13.531Z,50.62
2022-10-11T08:21:13.825Z,50.62
2022-10-11T08:22:14.131Z,50.62
2022-10-11T08:23:14.375Z,50.62
2022-10-11T08:24:14.653Z,50.62
2022-10-11T08:25:14.906Z,50.62
2022-10-11T08:26:15.195Z,50.62
2022-10-11T08:27:15.430Z,50.62
2022-10-11T08:28:15.863Z,56.25
2022-10-11T08:29:15.948Z,56.25
2022-10-11T08:30:16.196Z,61.88
2022-10-11T08:31:16.530Z,61.88
2022-10-11T08:32:16.754Z,61.88
2022-10-11T08:33:17.018Z,67.50
2022-10-11T08:34:17.256Z,67.50
2022-10-11T08:35:17.654Z,67.50
2022-10-11T08:36:17.769Z,67.50
2022-10-11T08:37:18.007Z,67.50
2022-10-11T08:38:18.268Z,67.50
2022-10-11T08:39:18.573Z,67.50
2022-10-11T08:40:18.859Z,67.50
2022-10-11T08:41:19.123Z,67.50
2022-10-11T08:42:19.407Z,73.12
2022-10-11T08:43:19.659Z,73.12
2022-10-11T08:44:19.874Z,73.12
2022-10-11T08:45:20.111Z,73.12
2022-10-11T08:46:20.432Z,73.12
2022-10-11T08:47:20.741Z,73.12
2022-10-11T08:48:20.945Z,73.12
2022-10-11T08:49:21.240Z,78.75
2022-10-11T08:50:21.596Z,78.75
2022-10-11T08:51:21.799Z,78.75
2022-10-11T08:52:22.075Z,84.38
2022-10-11T08:53:22.418Z,84.38
2022-10-11T08:54:22.595Z,84.38
2022-10-11T08:55:22.875Z,78.75
2022-10-11T08:56:23.125Z,78.75
2022-10-11T08:57:23.423Z,73.12
2022-10-11T08:58:23.726Z,73.12
2022-10-11T08:59:23.963Z,73.12
2022-10-11T09:00:24.192Z,73.12
2022-10-11T09:01:24.540Z,73.12
2022-10-11T09:02:24.803Z,78.75
2022-10-11T09:03:25.013Z,84.38
2022-10-11T09:04:25.300Z,90.00
2022-10-11T09:05:25.550Z,95.62
2022-10-11T09:06:25.868Z,95.62
2022-10-11T09:07:26.936Z,95.62
2022-10-11T09:08:26.312Z,84.38
2022-10-11T09:09:26.596Z,78.75
2022-10-11T09:10:26.826Z,78.75
2022-10-11T09:11:27.263Z,73.12
2022-10-11T09:12:31.943Z,67.50
2022-10-11T09:13:28.625Z,73.12
2022-10-11T09:14:27.912Z,78.75
2022-10-11T09:15:28.183Z,78.75
2022-10-11T09:16:28.493Z,78.75
2022-10-11T09:17:28.698Z,84.38
2022-10-11T09:18:29.027Z,84.38
2022-10-11T09:19:29.317Z,84.38
2022-10-11T09:20:29.540Z,90.00
2022-10-11T09:21:29.947Z,90.00
2022-10-11T09:22:30.826Z,84.38
2022-10-11T09:23:30.436Z,78.75
2022-10-11T09:24:30.682Z,84.38
2022-10-11T09:25:30.946Z,78.75
2022-10-11T09:26:31.257Z,78.75
2022-10-11T09:27:50.331Z,84.38
2022-10-11T09:28:32.901Z,90.00
2022-10-11T09:29:32.139Z,95.62
2022-10-11T09:30:32.357Z,106.88
2022-10-11T09:31:32.577Z,101.25
2022-10-11T09:32:32.828Z,106.88
2022-10-11T09:33:33.096Z,112.50
2022-10-11T09:34:33.826Z,123.75
2022-10-11T09:35:33.684Z,129.38
2022-10-11T09:36:33.959Z,129.38
2022-10-11T09:37:34.211Z,129.38
2022-10-11T09:38:34.450Z,129.38
2022-10-11T09:39:34.701Z,135.00
2022-10-11T09:40:35.003Z,140.62
2022-10-11T09:41:35.219Z,140.62
2022-10-11T09:42:35.471Z,151.88
2022-10-11T09:43:35.773Z,151.88
2022-10-11T09:44:35.965Z,151.88
2022-10-11T09:45:36.535Z,140.62
2022-10-11T09:46:36.449Z,146.25
2022-10-11T09:47:36.680Z,146.25
2022-10-11T09:48:37.071Z,146.25
2022-10-11T09:49:37.185Z,135.00
2022-10-11T09:50:37.443Z,123.75
2022-10-11T09:51:37.711Z,118.12
2022-10-11T09:52:37.984Z,118.12
2022-10-11T09:53:38.277Z,118.12
2022-10-11T09:54:38.545Z,118.12
2022-10-11T09:55:38.767Z,118.12
2022-10-11T09:56:39.017Z,118.12
2022-10-11T09:57:39.261Z,129.38
2022-10-11T09:58:39.564Z,129.38
2022-10-11T09:59:39.813Z,123.75
2022-10-11T10:00:40.049Z,129.38
2022-10-11T10:01:40.347Z,135.00
2022-10-11T10:02:40.600Z,135.00
2022-10-11T10:03:40.898Z,129.38
2022-10-11T10:04:41.166Z,129.38
2022-10-11T10:05:41.394Z,135.00
2022-10-11T10:06:41.659Z,191.25
2022-10-11T10:07:41.884Z,236.25
2022-10-11T10:08:42.136Z,286.88
2022-10-11T10:09:42.871Z,275.62
2022-10-11T10:10:42.704Z,270.00
2022-10-11T10:11:42.930Z,292.50
2022-10-11T10:12:43.234Z,286.88
2022-10-11T10:13:43.468Z,264.38
2022-10-11T10:14:43.709Z,146.25
2022-10-11T10:15:44.002Z,146.25
2022-10-11T10:16:44.358Z,163.12
2022-10-11T10:17:44.607Z,258.75
2022-10-11T10:18:44.930Z,225.00
2022-10-11T10:19:45.492Z,185.62
2022-10-11T10:20:45.423Z,168.75
2022-10-11T10:21:45.713Z,309.38
2022-10-11T10:22:46.034Z,787.50
2022-10-11T10:23:46.259Z,990.00
2022-10-11T10:24:46.531Z,787.50
2022-10-11T10:25:46.821Z,871.88
2022-10-11T10:26:47.155Z,1136.25
2022-10-11T10:27:47.369Z,990.00
2022-10-11T10:28:47.792Z,888.75
2022-10-11T10:29:48.024Z,978.75
2022-10-11T10:30:48.160Z,933.75
2022-10-11T10:32:12.864Z,855.00
2022-10-11T10:32:49.775Z,849.38
2022-10-11T10:33:49.044Z,933.75
2022-10-11T10:34:49.321Z,978.75
2022-10-11T10:35:49.697Z,905.62
2022-10-11T10:36:49.902Z,922.50
2022-10-11T10:37:50.257Z,956.25
2022-10-11T10:38:52.277Z,860.62
2022-10-11T10:39:50.819Z,815.62
2022-10-11T10:40:51.039Z,956.25
2022-10-11T10:41:51.330Z,978.75
2022-10-11T10:42:51.632Z,990.00
2022-10-11T10:43:51.919Z,1001.25
2022-10-11T10:44:52.153Z,995.62
2022-10-11T10:45:52.414Z,978.75
2022-10-11T10:46:52.692Z,1046.25
2022-10-11T10:47:53.022Z,1057.50
2022-10-11T10:49:55.177Z,984.38
2022-10-11T10:50:53.726Z,1051.88
2022-10-11T10:51:53.989Z,1057.50
2022-10-11T10:52:54.240Z,1018.12
2022-10-11T10:53:55.413Z,978.75
2022-10-11T10:54:54.805Z,1113.75
2022-10-11T10:55:55.059Z,1085.62
2022-10-11T10:56:55.335Z,1018.12
2022-10-11T10:57:55.620Z,1102.50
2022-10-11T10:58:55.950Z,1231.88
2022-10-11T10:59:56.198Z,1136.25
2022-10-11T11:00:56.465Z,1108.12
2022-10-11T11:01:56.748Z,1125.00
2022-10-11T11:02:57.169Z,1068.75
2022-10-11T11:03:57.317Z,1040.62
2022-10-11T11:05:57.878Z,1091.25
2022-10-11T11:06:58.137Z,1057.50
2022-10-11T11:07:58.478Z,1040.62
2022-10-11T11:08:58.694Z,1102.50
2022-10-11T11:09:58.939Z,1108.12
2022-10-11T11:10:59.190Z,1158.75
2022-10-11T11:11:59.467Z,1209.38
2022-10-11T11:12:59.738Z,1175.62
2022-10-11T11:14:00.025Z,1125.00
2022-10-11T11:15:00.308Z,1158.75
2022-10-11T11:16:00.569Z,1209.38
2022-10-11T11:17:00.877Z,1074.38
2022-10-11T11:18:01.153Z,1046.25
2022-10-11T11:19:01.861Z,1113.75
2022-10-11T11:20:01.597Z,1023.75
2022-10-11T11:21:01.896Z,866.25
2022-10-11T11:22:02.162Z,635.62
2022-10-11T11:23:02.438Z,652.50
2022-10-11T11:24:02.748Z,894.38
2022-10-11T11:25:02.975Z,770.62
2022-10-11T11:26:03.578Z,765.00
2022-10-11T11:27:04.162Z,916.88
2022-10-11T11:28:03.784Z,1040.62
2022-10-11T11:29:04.082Z,1141.88
2022-10-11T11:30:04.347Z,1231.88
2022-10-11T11:31:04.988Z,1186.88
2022-10-11T11:32:04.939Z,1164.38
2022-10-11T11:33:05.194Z,1186.88
2022-10-11T11:34:05.455Z,1164.38
2022-10-11T11:35:05.731Z,928.12
2022-10-11T11:36:07.270Z,961.88
2022-10-11T11:37:06.355Z,1046.25
2022-10-11T11:38:06.774Z,1175.62
2022-10-11T11:39:07.063Z,1226.25
2022-10-11T11:40:07.261Z,1271.25
2022-10-11T11:41:08.063Z,1231.88
2022-10-11T11:42:07.865Z,1248.75
2022-10-11T11:43:08.166Z,1175.62
2022-10-11T11:44:08.394Z,1203.75
2022-10-11T11:45:08.796Z,1237.50
2022-10-11T11:46:08.915Z,1282.50
2022-10-11T11:47:09.179Z,1192.50
2022-10-11T11:48:09.518Z,1158.75
2022-10-11T11:49:12.965Z,1006.88
2022-10-11T11:50:10.111Z,1096.88
2022-10-11T11:51:10.406Z,1305.00
2022-10-11T11:52:10.653Z,1276.88
2022-10-11T11:53:10.918Z,1305.00
2022-10-11T11:54:11.186Z,1395.00
2022-10-11T11:55:12.002Z,1327.50
2022-10-11T11:56:11.704Z,1248.75
2022-10-11T11:57:11.973Z,1164.38
2022-10-11T11:58:12.222Z,1147.50
2022-10-11T11:59:12.466Z,1125.00
2022-10-11T12:00:12.794Z,1355.62
2022-10-11T12:01:13.150Z,1344.38
2022-10-11T12:02:13.403Z,1119.38
2022-10-11T12:03:13.713Z,1175.62
2022-10-11T12:04:14.050Z,1254.38
2022-10-11T12:05:14.219Z,1344.38
2022-10-11T12:06:14.980Z,1350.00
2022-10-11T12:07:17.071Z,1265.62
2022-10-11T12:08:15.118Z,1237.50
2022-10-11T12:09:15.438Z,1271.25
2022-10-11T12:10:15.691Z,1248.75
2022-10-11T12:11:15.944Z,1192.50
2022-10-11T12:12:16.246Z,1243.12
2022-10-11T12:13:16.509Z,1293.75
2022-10-11T12:14:16.762Z,1333.12
2022-10-11T12:15:17.063Z,1361.25
2022-10-11T12:16:17.369Z,1305.00
2022-10-11T12:17:17.701Z,1372.50
2022-10-11T12:18:17.936Z,1423.12
2022-10-11T12:19:18.227Z,1389.38
2022-10-11T12:20:18.570Z,1333.12
2022-10-11T12:21:18.782Z,1226.25
2022-10-11T12:22:19.067Z,1271.25
2022-10-11T12:23:20.164Z,1265.62
2022-10-11T12:24:19.594Z,1175.62
2022-10-11T12:25:19.871Z,1344.38
2022-10-11T12:26:20.172Z,1350.00
2022-10-11T12:27:20.446Z,1215.00
2022-10-11T12:28:20.732Z,1029.38
2022-10-11T12:29:25.899Z,1164.38
2022-10-11T12:30:22.258Z,1400.62
2022-10-11T12:31:21.552Z,1428.75
2022-10-11T12:32:21.873Z,1220.62
2022-10-11T12:33:22.073Z,1254.38
2022-10-11T12:34:22.336Z,1423.12
2022-10-11T12:35:22.584Z,1406.25
2022-10-11T12:36:22.920Z,1282.50
2022-10-11T12:37:23.200Z,1333.12
2022-10-11T12:38:23.395Z,1215.00
2022-10-11T12:39:23.679Z,1057.50
2022-10-11T12:40:23.920Z,1096.88
2022-10-11T12:41:24.231Z,1220.62
2022-10-11T12:42:24.592Z,1113.75
2022-10-11T12:43:24.735Z,1220.62
2022-10-11T12:44:24.952Z,1327.50
2022-10-11T12:45:25.243Z,1215.00
2022-10-11T12:46:25.500Z,1153.12
2022-10-11T12:47:25.829Z,1119.38
2022-10-11T12:48:30.223Z,1209.38
2022-10-11T12:49:27.356Z,1271.25
2022-10-11T12:50:27.533Z,1231.88
2022-10-11T12:51:26.942Z,1164.38
2022-10-11T12:52:27.248Z,1175.62
2022-10-11T12:53:27.497Z,1147.50
2022-10-11T12:54:31.060Z,1119.38
2022-10-11T12:55:29.069Z,1085.62
2022-10-11T12:56:28.830Z,916.88
2022-10-11T12:57:28.673Z,956.25
2022-10-11T12:58:28.957Z,1006.88
2022-10-11T12:59:29.200Z,1001.25
2022-10-11T13:00:29.489Z,939.38